createdAt,value
2022-10-12T00:02:21.018Z,21.13
2022-10-12T00:05:08.853Z,19.83
2022-10-12T00:07:55.405Z,19.87
2022-10-12T00:10:42.993Z,19.80
2022-10-12T00:13:30.455Z,16.17
2022-10-12T00:16:20.679Z,20.50
2022-10-12T00:19:07.298Z,18.60
2022-10-12T00:21:54.221Z,20.03
2022-10-12T00:24:42.963Z,22.30
2022-10-12T00:27:29.906Z,18.00
2022-10-12T00:30:16.813Z,17.23
2022-10-12T00:33:05.036Z,14.47
2022-10-12T00:35:54.941Z,15.93
2022-10-12T00:38:41.513Z,13.50
2022-10-12T00:41:30.997Z,16.60
2022-10-12T00:44:41.020Z,14.60
2022-10-12T00:47:31.765Z,13.63
2022-10-12T00:50:25.983Z,12.93
2022-10-12T00:53:17.254Z,15.07
2022-10-12T00:56:07.098Z,16.10
2022-10-12T00:58:55.633Z,14.23
2022-10-12T01:01:42.607Z,16.23
2022-10-12T01:04:31.319Z,14.03
2022-10-12T01:07:19.228Z,16.33
2022-10-12T01:10:06.772Z,19.60
2022-10-12T01:12:54.095Z,25.17
2022-10-12T01:15:46.734Z,23.13
2022-10-12T01:18:40.846Z,19.37
2022-10-12T01:21:28.059Z,20.13
2022-10-12T01:24:35.881Z,21.90
2022-10-12T01:27:40.598Z,23.30
2022-10-12T01:30:32.133Z,20.83
2022-10-12T01:33:33.465Z,20.97
2022-10-12T01:36:28.592Z,20.83
2022-10-12T01:39:20.840Z,18.13
2022-10-12T01:42:12.230Z,20.20
2022-10-12T01:45:07.773Z,22.17
2022-10-12T01:47:56.555Z,21.07
2022-10-12T01:50:50.846Z,23.23
2022-10-12T01:53:43.645Z,27.00
2022-10-12T01:56:38.598Z,22.10
2022-10-12T01:59:37.449Z,20.57
2022-10-12T02:02:31.671Z,21.27
2022-10-12T02:05:28.229Z,22.27
2022-10-12T02:08:19.191Z,20.50
2022-10-12T02:11:09.594Z,18.40
2022-10-12T02:14:00.805Z,21.33
2022-10-12T02:16:52.020Z,21.17
2022-10-12T02:19:42.893Z,23.70
2022-10-12T02:22:35.811Z,19.80
2022-10-12T02:25:27.240Z,19.13
2022-10-12T02:28:18.282Z,20.40
2022-10-12T02:31:11.892Z,21.97
2022-10-12T02:34:03.913Z,17.10
2022-10-12T02:36:54.797Z,22.10
2022-10-12T02:39:49.301Z,19.97
2022-10-12T02:43:05.693Z,20.23
2022-10-12T02:45:49.462Z,19.13
2022-10-12T02:48:37.917Z,20.63
2022-10-12T02:51:25.920Z,24.20
2022-10-12T02:54:13.779Z,18.70
2022-10-12T02:57:02.044Z,21.00
2022-10-12T02:59:48.610Z,20.87
2022-10-12T03:02:35.466Z,18.20
2022-10-12T03:05:22.217Z,19.53
2022-10-12T03:08:09.116Z,20.57
2022-10-12T03:10:56.093Z,25.20
2022-10-12T03:13:44.205Z,19.60
2022-10-12T03:16:31.001Z,18.83
2022-10-12T03:19:17.651Z,14.97
2022-10-12T03:22:04.447Z,27.67
2022-10-12T03:24:51.514Z,18.60
2022-10-12T03:27:38.473Z,18.27
2022-10-12T03:30:27.322Z,18.57
2022-10-12T03:33:14.591Z,20.33
2022-10-12T03:36:02.134Z,24.97
2022-10-12T03:38:48.748Z,22.87
2022-10-12T03:41:35.715Z,21.97
2022-10-12T03:44:22.428Z,23.10
2022-10-12T03:47:10.503Z,21.53
2022-10-12T03:49:57.151Z,24.47
2022-10-12T03:52:44.158Z,19.50
2022-10-12T03:55:33.082Z,19.27
2022-10-12T03:58:20.005Z,25.00
2022-10-12T04:01:06.938Z,23.20
2022-10-12T04:03:55.493Z,23.00
2022-10-12T04:06:42.105Z,18.23
2022-10-12T04:09:28.829Z,20.27
2022-10-12T04:12:15.525Z,21.50
2022-10-12T04:15:02.047Z,23.07
2022-10-12T04:17:49.159Z,21.27
2022-10-12T04:20:37.509Z,19.33
2022-10-12T04:23:24.376Z,20.73
2022-10-12T04:26:11.478Z,17.60
2022-10-12T04:28:58.433Z,27.73
2022-10-12T04:31:45.339Z,20.90
2022-10-12T04:34:32.184Z,18.97
2022-10-12T04:37:20.258Z,20.37
2022-10-12T04:40:08.275Z,23.30
2022-10-12T04:42:55.854Z,15.80
2022-10-12T04:45:42.805Z,16.57
2022-10-12T04:48:30.020Z,15.70
2022-10-12T04:51:16.870Z,13.73
2022-10-12T04:54:05.134Z,16.03
2022-10-12T04:56:52.128Z,20.73
2022-10-12T04:59:38.955Z,20.03
2022-10-12T05:02:25.942Z,18.07
2022-10-12T05:05:12.674Z,20.37
2022-10-12T05:07:59.643Z,18.50
2022-10-12T05:10:47.648Z,19.23
2022-10-12T05:13:34.445Z,19.30
2022-10-12T05:16:22.048Z,17.97
2022-10-12T05:19:08.793Z,20.77
2022-10-12T05:21:55.728Z,18.07
2022-10-12T05:24:42.804Z,18.30
2022-10-12T05:27:31.515Z,14.17
2022-10-12T05:30:18.712Z,17.40
2022-10-12T05:33:05.740Z,13.53
2022-10-12T05:35:56.339Z,11.27
2022-10-12T05:38:44.023Z,12.33
2022-10-12T05:41:30.931Z,15.70
2022-10-12T05:44:19.031Z,15.83
2022-10-12T05:47:06.224Z,14.20
2022-10-12T05:49:53.281Z,13.63
2022-10-12T05:52:40.266Z,12.73
2022-10-12T05:55:27.601Z,12.63
2022-10-12T05:58:14.666Z,13.17
2022-10-12T06:01:09.156Z,13.03
2022-10-12T06:03:56.014Z,11.83
2022-10-12T06:06:42.765Z,13.83
2022-10-12T06:09:29.839Z,14.17
2022-10-12T06:12:17.244Z,17.50
2022-10-12T06:15:04.164Z,14.03
2022-10-12T06:17:52.328Z,23.43
2022-10-12T06:20:39.182Z,12.03
2022-10-12T06:23:26.399Z,12.00
2022-10-12T06:26:13.678Z,11.77
2022-10-12T06:29:01.396Z,13.50
2022-10-12T06:31:51.633Z,12.77
2022-10-12T06:34:40.290Z,11.97
2022-10-12T06:37:49.004Z,13.13
2022-10-12T06:40:36.951Z,12.30
2022-10-12T06:43:24.319Z,14.10
2022-10-12T06:46:12.031Z,10.67
2022-10-12T06:48:59.034Z,13.87
2022-10-12T06:51:47.318Z,17.53
2022-10-12T06:54:33.944Z,14.43
2022-10-12T06:57:21.170Z,15.40
2022-10-12T07:00:09.961Z,12.37
2022-10-12T07:02:57.185Z,10.27
2022-10-12T07:05:44.285Z,16.80
2022-10-12T07:08:32.257Z,14.00
2022-10-12T07:11:19.103Z,13.47
2022-10-12T07:14:06.263Z,16.90
2022-10-12T07:16:55.469Z,16.10
2022-10-12T07:19:42.244Z,16.47
2022-10-12T07:22:29.429Z,11.63
2022-10-12T07:25:17.633Z,16.37
2022-10-12T07:28:06.604Z,18.17
2022-10-12T07:30:53.300Z,11.17
2022-10-12T07:33:40.268Z,15.77
2022-10-12T07:36:41.056Z,12.03
2022-10-12T07:39:34.059Z,12.10
2022-10-12T07:42:21.930Z,13.37
2022-10-12T07:45:10.242Z,13.87
2022-10-12T07:47:57.625Z,13.17
2022-10-12T07:50:44.724Z,12.00
2022-10-12T07:53:31.750Z,12.83
2022-10-12T07:56:18.794Z,11.93
2022-10-12T07:59:07.363Z,14.63
2022-10-12T08:01:54.385Z,15.50
2022-10-12T08:04:41.053Z,12.77
2022-10-12T08:07:27.646Z,16.10
2022-10-12T08:10:28.166Z,13.80
2022-10-12T08:13:35.173Z,21.87
2022-10-12T08:16:36.437Z,13.13
2022-10-12T08:19:44.155Z,11.73
2022-10-12T08:22:51.175Z,12.53
2022-10-12T08:25:56.726Z,15.47
2022-10-12T08:29:03.183Z,15.57
2022-10-12T08:32:06.102Z,12.60
2022-10-12T08:34:53.671Z,15.00
2022-10-12T08:38:27.174Z,16.50
2022-10-12T08:41:55.225Z,12.93
2022-10-12T08:45:07.733Z,14.07
2022-10-12T08:48:06.775Z,11.63
2022-10-12T08:51:24.776Z,14.53
2022-10-12T09:46:37.037Z,12.80
2022-10-12T09:55:14.727Z,7.90
2022-10-12T10:02:34.779Z,10.23
2022-10-12T10:20:16.629Z,16.33
2022-10-12T12:02:29.171Z,8.40
2022-10-12T12:10:30.704Z,11.38
2022-10-12T12:31:59.141Z,7.68
2022-10-12T12:53:23.326Z,7.85
2022-10-12T13:11:12.854Z,10.38
2022-10-12T13:32:47.120Z,9.25
2022-10-12T13:54:50.914Z,9.25
2022-10-12T14:02:19.766Z,13.73
2022-10-12T14:23:14.804Z,11.90
2022-10-12T14:44:43.861Z,13.02
2022-10-12T15:03:10.133Z,14.75
2022-10-12T15:30:26.144Z,13.98
2022-10-12T15:47:43.153Z,12.13
2022-10-12T16:52:57.840Z,11.83
2022-10-12T17:09:36.366Z,12.27
2022-10-12T19:00:48.791Z,19.00
2022-10-12T19:36:09.605Z,23.30
2022-10-12T20:21:09.907Z,19.37
2022-10-12T20:48:12.272Z,15.90
2022-10-12T21:38:18.193Z,19.13
2022-10-12T21:55:06.159Z,17.47
2022-10-12T22:06:43.278Z,15.53
2022-10-12T22:19:18.571Z,19.43
2022-10-12T22:37:11.488Z,18.63
2022-10-12T22:55:10.555Z,16.53
2022-10-12T23:07:19.394Z,10.53
2022-10-12T23:14:26.461Z,13.90
2022-10-12T23:31:35.746Z,13.47
2022-10-12T23:52:54.395Z,11.10
